Time;durP1;ratioP1;P1;durP2;ratioP2;P2;SDS_P1;SDS_P2;PMS_P1;PMS_P2;Temp;Humidity;BMP_temperature;BMP_pressure;BME280_temperature;BME280_humidity;BME280_pressure;Samples;Min_cycle;Max_cycle;Signal;HPM_P1;HPM_P2
2023/01/02 00:01:47;;;;;;;13.45;3.22;;;;;;;;;;4901931;29;20149;-72
2023/01/02 00:04:13;;;;;;;8.60;2.90;;;;;;;;;;4886464;29;20040;-72
2023/01/02 00:06:39;;;;;;;7.40;2.80;;;;;;;;;;4886306;29;20051;-72
2023/01/02 00:09:07;;;;;;;8.18;2.80;;;9.20;99.90;;;;;;4902133;29;20044;-72
2023/01/02 00:11:33;;;;;;;9.13;2.97;;;;;;;;;;4901908;29;20067;-72
2023/01/02 00:13:59;;;;;;;7.63;2.70;;;;;;;;;;4901871;29;20409;-72
2023/01/02 00:16:25;;;;;;;8.25;2.75;;;;;;;;;;4901835;29;20044;-72
2023/01/02 00:18:51;;;;;;;12.60;3.33;;;;;;;;;;4901494;29;20040;-72
2023/01/02 00:21:18;;;;;;;8.50;3.35;;;;;;;;;;4901473;29;20051;-72
2023/01/02 00:23:44;;;;;;;8.30;2.67;;;;;;;;;;4901434;29;20484;-72
2023/01/02 00:26:10;;;;;;;13.35;4.00;;;;;;;;;;4885843;29;20040;-72
2023/01/02 00:28:36;;;;;;;9.23;3.35;;;;;;;;;;4885864;29;20044;-72
2023/01/02 00:31:11;;;;;;;12.07;3.47;;;9.20;99.90;;;;;;4901308;29;20044;-72
2023/01/02 00:33:37;;;;;;;8.57;3.10;;;;;;;;;;4901674;29;20062;-72
2023/01/02 00:36:07;;;;;;;8.50;3.63;;;;;;;;;;4901328;29;20178;-72
2023/01/02 00:38:33;;;;;;;9.25;3.08;;;;;;;;;;4901000;29;20059;-72
2023/01/02 00:40:59;;;;;;;9.27;3.30;;;;;;;;;;4885890;29;20096;-72
2023/01/02 00:43:26;;;;;;;12.57;4.10;;;9.20;99.90;;;;;;4901162;29;20036;-71
2023/01/02 00:45:52;;;;;;;9.18;3.00;;;;;;;;;;4885590;29;20039;-71
2023/01/02 00:48:18;;;;;;;8.10;3.00;;;;;;;;;;4885570;29;20195;-71
2023/01/02 00:50:44;;;;;;;6.20;3.13;;;;;;;;;;4900879;29;20047;-71
2023/01/02 00:53:10;;;;;;;6.25;3.17;;;;;;;;;;4885368;29;20052;-71
2023/01/02 00:55:36;;;;;;;11.60;4.20;;;;;;;;;;4885330;29;20131;-71
2023/01/02 00:58:03;;;;;;;12.10;4.43;;;;;;;;;;4900761;29;20044;-71
2023/01/02 01:00:29;;;;;;;8.43;4.60;;;;;;;;;;4885570;29;20047;-71
2023/01/02 01:02:56;;;;;;;12.88;5.13;;;9.30;99.90;;;;;;4900863;29;20515;-71
2023/01/02 01:05:23;;;;;;;8.30;5.03;;;;;;;;;;4900929;29;20036;-71
2023/01/02 01:07:49;;;;;;;14.55;5.82;;;;;;;;;;4900761;29;20139;-71
2023/01/02 01:10:15;;;;;;;11.07;5.40;;;;;;;;;;4885384;29;20399;-72
2023/01/02 01:12:41;;;;;;;12.13;6.28;;;;;;;;;;4900905;29;20111;-71
2023/01/02 01:15:08;;;;;;;13.63;6.60;;;;;;;;;;4900648;29;20050;-71
2023/01/02 01:17:34;;;;;;;14.10;6.88;;;;;;;;;;4900471;29;20079;-71
2023/01/02 01:20:00;;;;;;;12.45;7.30;;;;;;;;;;4885192;29;20052;-71
2023/01/02 01:22:26;;;;;;;15.13;8.13;;;;;;;;;;4900693;29;20040;-71
2023/01/02 01:24:52;;;;;;;15.85;9.25;;;;;;;;;;4899419;29;20457;-71
2023/01/02 01:27:18;;;;;;;19.17;8.68;;;;;;;;;;4899792;29;20056;-71
2023/01/02 01:29:44;;;;;;;15.50;8.38;;;;;;;;;;4900420;29;20469;-71
2023/01/02 01:32:10;;;;;;;18.23;8.15;;;;;;;;;;4884814;29;20050;-71
2023/01/02 01:34:36;;;;;;;18.52;8.55;;;;;;;;;;4899120;29;20048;-71
2023/01/02 01:37:02;;;;;;;16.95;8.80;;;;;;;;;;4884852;29;20485;-71
2023/01/02 01:39:28;;;;;;;18.38;7.70;;;;;;;;;;4900319;29;20397;-71
2023/01/02 01:41:54;;;;;;;18.38;8.80;;;;;;;;;;4900167;29;20131;-71
2023/01/02 01:44:47;;;;;;;19.67;8.43;;;;;;;;;;4900265;29;20044;-71
2023/01/02 01:47:22;;;;;;;13.48;7.55;;;9.70;99.90;;;;;;4896765;29;20056;-71
2023/01/02 01:50:07;;;;;;;13.88;6.68;;;9.60;99.90;;;;;;4884665;29;20044;-71
2023/01/02 01:52:35;;;;;;;16.25;8.30;;;;;;;;;;4899950;29;20060;-71
2023/01/02 01:55:41;;;;;;;13.25;7.22;;;9.80;99.90;;;;;;4900433;29;20078;-71
2023/01/02 01:58:09;;;;;;;16.90;7.82;;;9.90;99.90;;;;;;4825265;29;20510;-71
2023/01/02 02:00:35;;;;;;;13.50;6.78;;;;;;;;;;4886051;29;20067;-72
2023/01/02 02:03:11;;;;;;;14.88;7.00;;;9.80;99.90;;;;;;4900140;29;20484;-72
2023/01/02 02:05:37;;;;;;;17.35;8.05;;;;;;;;;;4900389;29;20197;-71
2023/01/02 02:08:06;;;;;;;15.65;7.38;;;;;;;;;;4884367;29;20055;-71
2023/01/02 02:10:33;;;;;;;16.95;7.78;;;;;;;;;;4900239;29;20397;-71
2023/01/02 02:12:59;;;;;;;17.60;8.93;;;;;;;;;;4900015;29;20126;-72
2023/01/02 02:15:46;;;;;;;16.35;8.32;;;10.70;99.90;;;;;;4900273;29;20151;-72
2023/01/02 02:18:51;;;;;;;22.23;10.23;;;9.90;99.90;;;;;;4899978;29;20516;-72
2023/01/02 02:21:36;;;;;;;21.92;10.38;;;;;;;;;;4880480;29;20048;-71
2023/01/02 02:24:12;;;;;;;25.38;11.90;;;;;;;;;;4900123;29;20108;-71
2023/01/02 02:26:47;;;;;;;26.70;12.25;;;8.90;99.90;;;;;;4899797;29;20044;-71
2023/01/02 02:30:01;;;;;;;27.58;14.00;;;9.90;99.90;;;;;;4899847;29;20051;-71
2023/01/02 02:32:46;;;;;;;28.98;15.38;;;;;;;;;;4830790;29;20408;-71
2023/01/02 02:35:29;;;;;;;32.03;14.82;;;10.10;99.90;;;;;;4900073;29;20445;-71
2023/01/02 02:38:07;;;;;;;29.27;15.07;;;10.10;99.90;;;;;;4884167;29;20043;-71
2023/01/02 02:40:50;;;;;;;41.70;17.42;;;10.00;99.90;;;;;;4902893;29;20040;-71
2023/01/02 02:43:46;;;;;;;41.22;18.15;;;10.10;99.90;;;;;;4903280;29;20048;-71
2023/01/02 02:46:25;;;;;;;43.70;19.23;;;10.00;99.90;;;;;;4919059;29;20044;-71
2023/01/02 02:49:06;;;;;;;50.72;19.20;;;10.20;99.90;;;;;;4903407;29;20563;-71
2023/01/02 02:51:37;;;;;;;66.63;22.85;;;10.10;99.90;;;;;;4902904;29;20131;-71
2023/01/02 02:54:19;;;;;;;50.35;21.55;;;10.20;99.90;;;;;;4887395;29;20063;-72
2023/01/02 02:56:47;;;;;;;50.53;21.42;;;10.10;99.90;;;;;;4903148;29;20044;-72
2023/01/02 02:59:13;;;;;;;41.75;20.98;;;;;;;;;;4887420;29;20071;-72
2023/01/02 03:01:39;;;;;;;52.90;22.17;;;;;;;;;;4903282;29;20446;-72
2023/01/02 03:04:21;;;;;;;55.88;23.13;;;;;;;;;;4903274;29;20386;-72
2023/01/02 03:07:02;;;;;;;61.15;24.95;;;10.10;99.90;;;;;;4902934;29;20127;-72
2023/01/02 03:09:31;;;;;;;59.25;24.58;;;10.80;99.90;;;;;;4919832;29;20055;-72
2023/01/02 03:12:05;;;;;;;53.05;24.08;;;10.00;99.90;;;;;;4903124;29;20135;-72
2023/01/02 03:15:02;;;;;;;58.70;24.20;;;10.10;99.90;;;;;;4903126;29;20366;-72
2023/01/02 03:17:28;;;;;;;63.97;24.55;;;;;;;;;;4902769;29;20039;-72
2023/01/02 03:20:00;;;;;;;55.60;23.58;;;10.20;99.90;;;;;;4902963;29;20113;-72
2023/01/02 03:22:31;;;;;;;62.67;25.30;;;10.30;99.90;;;;;;4902654;29;20480;-72
2023/01/02 03:24:58;;;;;;;62.45;24.73;;;;;;;;;;4902665;29;20040;-72
2023/01/02 03:27:28;;;;;;;59.67;24.77;;;10.20;99.90;;;;;;4902379;29;20040;-72
2023/01/02 03:30:00;;;;;;;52.90;24.25;;;;;;;;;;4902610;29;20043;-72
2023/01/02 03:32:38;;;;;;;60.42;25.17;;;10.30;99.90;;;;;;4902346;29;20491;-72
2023/01/02 03:35:07;;;;;;;56.22;24.60;;;;;;;;;;4902483;29;20058;-72
2023/01/02 03:37:36;;;;;;;61.88;24.08;;;10.30;99.90;;;;;;4902139;29;20044;-72
2023/01/02 03:40:19;;;;;;;53.88;24.02;;;10.40;99.90;;;;;;4887306;29;20397;-72
2023/01/02 03:43:12;;;;;;;59.92;25.15;;;10.10;99.90;;;;;;4902508;29;20076;-72
2023/01/02 03:46:10;;;;;;;57.85;23.90;;;10.10;99.90;;;;;;4897522;29;20130;-72
2023/01/02 03:48:48;;;;;;;49.92;22.10;;;10.30;99.90;;;;;;4902305;29;20052;-71
2023/01/02 03:51:14;;;;;;;55.85;21.70;;;;;;;;;;4901616;29;20060;-72
2023/01/02 03:53:40;;;;;;;56.00;21.40;;;;;;;;;;4901886;29;20060;-71
2023/01/02 03:56:25;;;;;;;50.72;21.50;;;;;;;;;;4901883;29;20079;-71
2023/01/02 03:58:54;;;;;;;44.65;21.75;;;;;;;;;;4901840;29;20055;-71
2023/01/02 04:01:32;;;;;;;47.38;21.35;;;10.40;99.90;;;;;;4886563;29;20040;-71
2023/01/02 04:04:17;;;;;;;45.97;20.92;;;11.00;99.90;;;;;;4901865;29;20059;-71
2023/01/02 04:06:50;;;;;;;54.63;22.75;;;10.50;99.90;;;;;;4901885;29;20052;-71
2023/01/02 04:09:27;;;;;;;51.95;21.10;;;10.50;99.90;;;;;;4902105;29;20496;-71
2023/01/02 04:11:58;;;;;;;54.53;21.65;;;10.50;99.90;;;;;;4901748;29;20411;-71
2023/01/02 04:14:40;;;;;;;54.67;21.40;;;10.50;99.90;;;;;;4901949;29;20048;-71
2023/01/02 04:17:07;;;;;;;46.00;20.80;;;;;;;;;;4901582;29;20044;-71
2023/01/02 04:19:48;;;;;;;50.85;22.45;;;;;;;;;;4901524;29;20044;-71
2023/01/02 04:22:20;;;;;;;53.72;22.73;;;10.30;99.90;;;;;;4901406;29;20131;-71
2023/01/02 04:25:01;;;;;;;47.35;21.13;;;10.30;99.90;;;;;;4886025;29;20072;-71
2023/01/02 04:27:33;;;;;;;50.67;21.83;;;10.60;99.90;;;;;;4901321;29;20099;-71
2023/01/02 04:29:59;;;;;;;46.53;20.08;;;;;;;;;;4901843;29;20040;-71
2023/01/02 04:32:28;;;;;;;46.10;19.10;;;;;;;;;;4901197;29;20393;-71
2023/01/02 04:34:56;;;;;;;50.67;19.77;;;10.50;99.90;;;;;;4901565;29;20135;-71
2023/01/02 04:37:27;;;;;;;43.50;19.25;;;10.50;99.90;;;;;;4901274;29;20508;-71
2023/01/02 04:39:57;;;;;;;43.17;18.67;;;10.60;99.90;;;;;;4901056;29;20575;-71
2023/01/02 04:42:23;;;;;;;39.47;18.38;;;;;;;;;;4901189;29;20048;-71
2023/01/02 04:44:49;;;;;;;34.92;16.45;;;;;;;;;;4901129;29;20095;-72
2023/01/02 04:47:15;;;;;;;32.33;16.92;;;;;;;;;;4901009;29;20507;-72
2023/01/02 04:49:41;;;;;;;43.47;17.35;;;;;;;;;;4901258;29;20449;-72
2023/01/02 04:52:07;;;;;;;38.63;16.02;;;;;;;;;;4900736;29;20048;-72
2023/01/02 04:54:33;;;;;;;35.95;16.83;;;;;;;;;;4916595;29;20180;-71
2023/01/02 04:56:59;;;;;;;37.30;16.55;;;10.50;99.90;;;;;;4901090;29;20486;-72
2023/01/02 04:59:26;;;;;;;40.10;16.40;;;;;;;;;;4900826;29;20051;-71
2023/01/02 05:01:52;;;;;;;30.27;16.17;;;;;;;;;;4900262;29;20047;-72
2023/01/02 05:04:18;;;;;;;35.47;15.82;;;;;;;;;;4885278;29;20040;-72
2023/01/02 05:06:44;;;;;;;32.17;15.27;;;;;;;;;;4900788;29;20051;-72
2023/01/02 05:09:10;;;;;;;38.30;16.73;;;;;;;;;;4900673;29;20040;-72
2023/01/02 05:11:36;;;;;;;31.27;15.30;;;;;;;;;;4900675;29;20381;-71
2023/01/02 05:14:02;;;;;;;30.20;15.25;;;;;;;;;;4900727;29;20126;-71
2023/01/02 05:16:28;;;;;;;31.45;15.57;;;;;;;;;;4900506;29;20044;-72
2023/01/02 05:18:54;;;;;;;26.65;14.90;;;;;;;;;;4884990;29;20055;-72
2023/01/02 05:24:05;;;;;;;33.33;14.98;;;;;;;;;;4887398;29;20480;-72
2023/01/02 05:26:31;;;;;;;30.52;15.43;;;;;;;;;;4900511;29;20040;-72
2023/01/02 05:28:58;;;;;;;33.53;16.17;;;;;;;;;;4884943;29;20047;-72
2023/01/02 05:31:24;;;;;;;31.20;16.52;;;;;;;;;;4900475;29;20051;-71
2023/01/02 05:33:51;;;;;;;38.83;18.00;;;10.50;99.90;;;;;;4884944;29;20079;-71
2023/01/02 05:36:17;;;;;;;38.35;17.90;;;;;;;;;;4900322;29;20040;-71
2023/01/02 05:38:43;;;;;;;31.77;16.08;;;;;;;;;;4884655;29;20099;-71
2023/01/02 05:41:10;;;;;;;32.63;15.02;;;;;;;;;;4884669;29;20072;-71
2023/01/02 05:43:37;;;;;;;40.30;16.30;;;10.20;99.90;;;;;;4884638;29;20040;-71
2023/01/02 05:46:17;;;;;;;41.67;15.45;;;10.20;99.90;;;;;;4884971;29;20040;-71
2023/01/02 05:48:43;;;;;;;45.05;16.73;;;;;;;;;;4900137;29;20127;-71
2023/01/02 05:51:11;;;;;;;43.90;17.80;;;10.30;99.90;;;;;;4900060;29;20051;-71
2023/01/02 05:53:38;;;;;;;61.35;19.75;;;;;;;;;;4900049;29;20060;-71
2023/01/02 05:56:15;;;;;;;44.10;15.88;;;;;;;;;;4885405;29;20052;-71
2023/01/02 05:58:43;;;;;;;37.15;12.90;;;9.80;99.90;;;;;;4900201;29;20055;-71
2023/01/02 06:01:13;;;;;;;34.17;10.98;;;9.60;99.90;;;;;;4900213;29;20079;-72
2023/01/02 06:03:39;;;;;;;23.08;7.97;;;;;;;;;;4884764;29;20391;-72
2023/01/02 06:06:07;;;;;;;21.27;7.03;;;9.60;99.90;;;;;;4900021;29;20047;-72
2023/01/02 06:08:33;;;;;;;17.20;4.85;;;;;;;;;;4899926;29;20044;-72
2023/01/02 06:10:59;;;;;;;19.83;5.45;;;;;;;;;;4899812;29;20174;-71
2023/01/02 06:13:25;;;;;;;24.27;6.22;;;;;;;;;;4901007;29;20051;-71
2023/01/02 06:15:54;;;;;;;15.38;5.28;;;9.40;99.90;;;;;;4903852;29;20396;-68
2023/01/02 06:18:20;;;;;;;17.60;3.80;;;;;;;;;;4903844;29;20392;-73
2023/01/02 06:20:46;;;;;;;13.05;3.60;;;;;;;;;;4903625;29;20040;-72
2023/01/02 06:23:12;;;;;;;17.35;3.22;;;;;;;;;;4903552;29;20072;-72
2023/01/02 06:25:38;;;;;;;6.75;2.25;;;;;;;;;;4903653;29;20392;-72
2023/01/02 06:28:04;;;;;;;5.97;2.00;;;;;;;;;;4902191;29;20059;-72
2023/01/02 06:30:30;;;;;;;6.38;2.08;;;;;;;;;;4903522;29;20107;-72
2023/01/02 06:32:57;;;;;;;7.68;2.08;;;;;;;;;;4903356;29;20048;-72
2023/01/02 06:35:23;;;;;;;3.97;1.63;;;;;;;;;;4888082;29;20040;-72
2023/01/02 06:37:49;;;;;;;4.65;1.60;;;;;;;;;;4903172;29;20048;-72
2023/01/02 06:40:15;;;;;;;7.35;2.33;;;;;;;;;;4887812;29;20040;-72
2023/01/02 06:42:44;;;;;;;8.82;2.47;;;;;;;;;;4903001;29;20071;-72
2023/01/02 06:45:11;;;;;;;8.75;1.80;;;;;;;;;;4903121;29;20044;-72
2023/01/02 06:47:37;;;;;;;6.32;1.50;;;;;;;;;;4903134;29;20048;-72
2023/01/02 06:50:03;;;;;;;6.60;1.63;;;;;;;;;;4903108;29;20039;-72
2023/01/02 06:52:29;;;;;;;5.18;1.70;;;;;;;;;;4903159;29;20453;-72
2023/01/02 06:54:56;;;;;;;6.68;1.80;;;;;;;;;;4903384;29;20044;-72
2023/01/02 06:57:22;;;;;;;8.00;1.98;;;;;;;;;;4887317;29;20080;-72
2023/01/02 06:59:48;;;;;;;14.35;2.42;;;;;;;;;;4887316;29;20393;-72
2023/01/02 07:02:14;;;;;;;5.85;1.83;;;;;;;;;;4903206;29;20087;-72
2023/01/02 07:04:40;;;;;;;5.60;1.52;;;;;;;;;;4903257;29;20043;-72
2023/01/02 07:07:07;;;;;;;11.07;1.90;;;;;;;;;;4903014;29;20043;-72
2023/01/02 07:09:33;;;;;;;10.80;2.13;;;;;;;;;;4903211;29;20166;-72
2023/01/02 07:11:59;;;;;;;15.50;2.53;;;;;;;;;;4902738;29;20556;-72
2023/01/02 07:14:25;;;;;;;8.05;2.00;;;;;;;;;;4902807;29;20040;-72
2023/01/02 07:16:52;;;;;;;10.32;2.10;;;;;;;;;;4887221;29;20499;-72
2023/01/02 07:19:18;;;;;;;5.93;1.73;;;;;;;;;;4902723;29;20048;-72
2023/01/02 07:21:44;;;;;;;5.00;1.90;;;;;;;;;;4902748;29;20045;-72
2023/01/02 07:24:14;;;;;;;4.68;1.83;;;8.40;99.90;;;;;;4886572;29;20036;-73
2023/01/02 07:26:40;;;;;;;9.20;2.55;;;;;;;;;;4902161;29;20040;-73
2023/01/02 07:29:06;;;;;;;6.47;1.80;;;;;;;;;;4886794;29;20052;-72
2023/01/02 07:31:33;;;;;;;7.30;1.70;;;;;;;;;;4902498;29;20048;-72
2023/01/02 07:33:59;;;;;;;8.45;3.03;;;;;;;;;;4902307;29;20054;-72
2023/01/02 07:36:25;;;;;;;10.20;3.15;;;;;;;;;;4902531;29;20044;-73
2023/01/02 07:38:51;;;;;;;11.00;2.78;;;;;;;;;;4902105;29;20086;-72
2023/01/02 07:41:19;;;;;;;11.15;3.22;;;;;;;;;;4902389;29;20040;-72
2023/01/02 07:43:45;;;;;;;6.28;2.50;;;;;;;;;;4902140;29;20055;-72
2023/01/02 07:46:12;;;;;;;7.93;2.75;;;;;;;;;;4886404;29;20040;-73
2023/01/02 07:48:38;;;;;;;13.98;3.40;;;;;;;;;;4902326;29;20393;-73
2023/01/02 07:51:05;;;;;;;12.18;3.40;;;;;;;;;;4902004;29;20048;-73
2023/01/02 07:53:31;;;;;;;7.93;2.20;;;;;;;;;;4886170;29;20071;-73
2023/01/02 07:55:58;;;;;;;9.82;2.65;;;;;;;;;;4882049;29;20535;-73
2023/01/02 07:58:25;;;;;;;17.98;2.92;;;;;;;;;;4901687;29;20397;-73
2023/01/02 08:00:51;;;;;;;18.08;3.22;;;;;;;;;;4902870;29;20079;-72
2023/01/02 08:03:17;;;;;;;9.77;3.05;;;;;;;;;;4901511;29;20040;-72
2023/01/02 08:05:43;;;;;;;9.57;3.67;;;;;;;;;;4886311;29;20040;-72
2023/01/02 08:08:09;;;;;;;13.20;3.53;;;;;;;;;;4901850;29;20051;-72
2023/01/02 08:10:36;;;;;;;10.88;3.30;;;;;;;;;;4901639;29;20044;-72
2023/01/02 08:13:03;;;;;;;17.00;4.40;;;;;;;;;;4901744;29;20051;-72
2023/01/02 08:15:29;;;;;;;11.75;3.85;;;;;;;;;;4901915;29;20051;-72
2023/01/02 08:17:56;;;;;;;16.80;3.72;;;;;;;;;;4901599;29;20099;-72
2023/01/02 08:20:22;;;;;;;8.65;4.03;;;;;;;;;;4901818;29;20516;-73
2023/01/02 08:22:48;;;;;;;12.38;4.32;;;;;;;;;;4901296;29;20114;-72
2023/01/02 08:25:14;;;;;;;7.97;3.55;;;;;;;;;;4901355;29;20040;-73
2023/01/02 08:27:40;;;;;;;13.95;4.63;;;;;;;;;;4901330;29;20519;-72
2023/01/02 08:30:07;;;;;;;12.50;4.25;;;;;;;;;;4901306;29;20044;-72
2023/01/02 08:32:37;;;;;;;19.15;4.38;;;;;;;;;;4901311;29;20043;-73
2023/01/02 08:35:03;;;;;;;15.18;4.30;;;;;;;;;;4901317;29;20560;-73
2023/01/02 08:37:29;;;;;;;18.25;4.82;;;;;;;;;;4884833;29;20047;-73
2023/01/02 08:39:55;;;;;;;22.75;4.55;;;;;;;;;;4901065;29;20044;-73
2023/01/02 08:42:21;;;;;;;12.18;3.70;;;;;;;;;;4901181;29;20044;-73
2023/01/02 08:44:47;;;;;;;10.88;3.63;;;;;;;;;;4885748;29;20044;-73
2023/01/02 08:47:13;;;;;;;17.80;4.05;;;;;;;;;;4901122;29;20044;-73
2023/01/02 08:49:39;;;;;;;16.58;5.05;;;;;;;;;;4901032;29;20051;-72
2023/01/02 08:52:05;;;;;;;14.60;4.97;;;;;;;;;;4884756;29;20044;-71
2023/01/02 08:54:32;;;;;;;21.25;4.32;;;;;;;;;;4885429;29;20126;-73
2023/01/02 08:56:58;;;;;;;20.63;4.70;;;;;;;;;;4916371;29;20044;-73
2023/01/02 08:59:25;;;;;;;17.23;5.43;;;8.40;99.90;;;;;;4900942;29;20091;-73
2023/01/02 09:01:51;;;;;;;17.52;5.60;;;;;;;;;;4885355;29;20480;-73
2023/01/02 09:04:17;;;;;;;13.90;4.00;;;8.50;99.90;;;;;;4900847;29;20489;-73
2023/01/02 09:06:44;;;;;;;13.68;4.07;;;8.50;99.90;;;;;;4899889;29;20112;-71
2023/01/02 09:09:12;;;;;;;15.07;3.92;;;8.40;99.90;;;;;;4899824;29;20056;-72
2023/01/02 09:11:42;;;;;;;11.50;3.33;;;;;;;;;;4899336;29;20051;-71
2023/01/02 09:14:08;;;;;;;10.07;4.28;;;;;;;;;;4900489;29;20075;-71
2023/01/02 09:16:34;;;;;;;15.82;4.63;;;;;;;;;;4899663;29;20429;-71
2023/01/02 09:19:01;;;;;;;12.90;3.50;;;;;;;;;;4900379;29;20051;-71
2023/01/02 09:21:27;;;;;;;13.18;3.88;;;;;;;;;;4900699;29;20052;-71
2023/01/02 09:23:53;;;;;;;9.60;3.80;;;;;;;;;;4900823;29;20112;-71
2023/01/02 09:26:19;;;;;;;11.85;2.90;;;;;;;;;;4900438;29;20047;-71
2023/01/02 09:28:45;;;;;;;10.63;2.80;;;;;;;;;;4900552;29;20067;-70
2023/01/02 09:31:13;;;;;;;11.02;3.25;;;;;;;;;;4900510;29;20040;-71
2023/01/02 09:33:39;;;;;;;10.20;2.53;;;;;;;;;;4884902;29;20063;-71
2023/01/02 09:36:07;;;;;;;4.10;2.40;;;;;;;;;;4900592;29;20048;-71
2023/01/02 09:38:33;;;;;;;6.32;2.33;;;;;;;;;;4900253;29;20055;-71
2023/01/02 09:41:01;;;;;;;10.40;2.65;;;;;;;;;;4884841;29;20154;-71
2023/01/02 09:43:27;;;;;;;6.40;2.80;;;;;;;;;;4900194;29;20123;-71
2023/01/02 09:45:55;;;;;;;8.65;2.85;;;;;;;;;;4900457;29;20180;-71
2023/01/02 09:48:21;;;;;;;15.63;3.65;;;;;;;;;;4899982;29;20043;-71
2023/01/02 09:50:48;;;;;;;10.48;3.00;;;8.80;99.90;;;;;;4901062;29;20096;-71
2023/01/02 09:53:15;;;;;;;11.13;3.70;;;8.70;99.90;;;;;;4900049;29;20052;-71
2023/01/02 09:55:57;;;;;;;11.90;3.75;;;;;;;;;;4900102;29;20052;-71
2023/01/02 09:58:23;;;;;;;9.25;3.78;;;;;;;;;;4900302;29;20048;-71
2023/01/02 10:00:50;;;;;;;8.88;3.50;;;8.50;99.90;;;;;;4900093;29;20051;-71
2023/01/02 10:03:49;;;;;;;8.73;3.28;;;8.60;99.90;;;;;;4884863;29;20091;-71
2023/01/02 10:06:20;;;;;;;10.80;3.80;;;8.60;99.90;;;;;;4900289;29;20052;-71
2023/01/02 10:08:49;;;;;;;13.07;4.32;;;;;;;;;;4900036;29;20048;-71
2023/01/02 10:11:27;;;;;;;11.93;4.63;;;8.70;99.90;;;;;;4915904;29;20048;-71
2023/01/02 10:13:56;;;;;;;12.93;4.28;;;;;;;;;;4900121;29;20043;-71
2023/01/02 10:16:27;;;;;;;19.33;4.45;;;8.60;99.90;;;;;;4900074;29;20107;-71
2023/01/02 10:18:54;;;;;;;8.85;3.53;;;8.70;99.90;;;;;;4899863;29;20073;-71
2023/01/02 10:21:33;;;;;;;13.52;3.50;;;8.70;99.90;;;;;;4900028;29;20047;-71
2023/01/02 10:24:06;;;;;;;10.02;2.90;;;8.70;99.90;;;;;;4900073;29;20071;-71
2023/01/02 10:26:37;;;;;;;10.52;2.88;;;8.70;99.90;;;;;;4900101;29;20047;-71
2023/01/02 10:29:13;;;;;;;11.52;3.00;;;;;;;;;;4884179;29;20040;-71
2023/01/02 10:32:12;;;;;;;14.80;3.90;;;8.60;99.90;;;;;;4899652;29;20127;-72
2023/01/02 10:34:50;;;;;;;24.38;3.65;;;8.70;99.90;;;;;;4881202;29;20056;-73
2023/01/02 10:37:16;;;;;;;8.20;3.75;;;8.60;99.90;;;;;;4884060;29;20052;-72
2023/01/02 10:39:44;;;;;;;16.95;3.97;;;8.70;99.90;;;;;;4898999;29;20040;-72
2023/01/02 10:42:14;;;;;;;15.18;3.53;;;;;;;;;;4899386;29;20048;-72
2023/01/02 10:44:41;;;;;;;22.13;5.40;;;;;;;;;;4883305;29;20553;-72
2023/01/02 10:47:19;;;;;;;14.77;4.40;;;;;;;;;;4898968;29;20051;-72
2023/01/02 10:49:45;;;;;;;21.58;4.65;;;;;;;;;;4897964;29;20040;-72
2023/01/02 10:52:20;;;;;;;18.75;5.05;;;8.80;99.90;;;;;;4898789;29;20127;-73
2023/01/02 10:54:52;;;;;;;17.70;5.20;;;;;;;;;;4899018;29;20040;-72
2023/01/02 10:57:42;;;;;;;11.98;3.30;;;;;;;;;;4880074;29;20044;-72
2023/01/02 11:00:17;;;;;;;15.55;3.40;;;;;;;;;;4873660;29;20056;-73
2023/01/02 11:02:49;;;;;;;20.23;5.15;;;;;;;;;;4903000;29;20127;-72
2023/01/02 11:05:20;;;;;;;19.27;4.40;;;;;;;;;;4902289;29;20075;-73
2023/01/02 11:07:50;;;;;;;18.08;4.00;;;;;;;;;;4902397;29;20036;-73
2023/01/02 11:10:36;;;;;;;11.10;3.25;;;;;;;;;;4902494;29;20075;-73
2023/01/02 11:13:03;;;;;;;24.08;5.53;;;;;;;;;;4902743;29;20518;-73
2023/01/02 11:15:33;;;;;;;19.58;4.32;;;8.80;99.90;;;;;;4887043;29;20091;-73
2023/01/02 11:18:00;;;;;;;12.32;3.00;;;;;;;;;;4902601;29;20135;-73
2023/01/02 11:20:30;;;;;;;15.88;5.03;;;;;;;;;;4901849;29;20050;-73
2023/01/02 11:22:57;;;;;;;13.13;3.00;;;;;;;;;;4902685;29;20103;-73
2023/01/02 11:25:31;;;;;;;16.38;3.03;;;9.00;99.90;;;;;;4901402;29;20052;-73
2023/01/02 11:27:59;;;;;;;15.05;2.83;;;;;;;;;;4901545;29;20040;-73
2023/01/02 11:30:37;;;;;;;16.00;2.90;;;8.90;99.90;;;;;;4901710;29;20112;-73
2023/01/02 11:33:06;;;;;;;14.65;3.47;;;;;;;;;;4901099;29;20119;-74
2023/01/02 11:35:46;;;;;;;14.90;2.80;;;8.90;99.90;;;;;;4902422;29;20127;-74
2023/01/02 11:38:39;;;;;;;18.80;3.42;;;;;;;;;;4902142;29;20040;-74
2023/01/02 11:41:08;;;;;;;14.15;2.97;;;;;;;;;;4902106;29;20198;-74
2023/01/02 11:43:48;;;;;;;13.35;3.55;;;9.00;99.90;;;;;;4886990;29;20099;-74
2023/01/02 11:46:34;;;;;;;17.92;2.95;;;;;;;;;;4902025;29;20050;-74
2023/01/02 11:49:11;;;;;;;12.68;3.08;;;;;;;;;;4901718;29;20075;-74
2023/01/02 11:51:38;;;;;;;21.85;3.70;;;;;;;;;;4886276;29;20048;-74
2023/01/02 11:54:09;;;;;;;12.00;2.88;;;;;;;;;;4886244;29;20063;-74
2023/01/02 11:56:37;;;;;;;19.40;3.67;;;;;;;;;;4901994;29;20048;-75
2023/01/02 11:59:05;;;;;;;13.15;2.58;;;;;;;;;;4901826;29;20044;-74
2023/01/02 12:01:42;;;;;;;22.08;3.78;;;;;;;;;;4901835;29;20043;-74
2023/01/02 12:04:09;;;;;;;17.45;3.10;;;;;;;;;;4886176;29;20071;-74
2023/01/02 12:06:35;;;;;;;14.48;3.08;;;;;;;;;;4886458;29;20043;-74
2023/01/02 12:09:04;;;;;;;22.48;3.17;;;;;;;;;;4886394;29;20047;-74
2023/01/02 12:11:36;;;;;;;23.42;3.20;;;;;;;;;;4885910;29;20050;-74
2023/01/02 12:14:13;;;;;;;13.02;3.53;;;;;;;;;;4886259;29;20111;-74
2023/01/02 12:16:55;;;;;;;17.05;4.63;;;;;;;;;;4901911;29;20084;-74
2023/01/02 12:19:25;;;;;;;28.40;4.78;;;;;;;;;;4901565;29;20080;-74
2023/01/02 12:21:51;;;;;;;18.83;2.63;;;;;;;;;;4901612;29;20089;-74
2023/01/02 12:24:36;;;;;;;23.50;3.72;;;;;;;;;;4886249;29;20039;-74
2023/01/02 12:27:05;;;;;;;20.42;3.08;;;;;;;;;;4901366;29;20180;-74
2023/01/02 12:29:39;;;;;;;25.30;3.35;;;;;;;;;;4901570;29;20389;-74
2023/01/02 12:32:29;;;;;;;28.77;3.67;;;9.30;99.90;;;;;;4885624;29;20047;-74
2023/01/02 12:35:29;;;;;;;25.88;3.22;;;9.30;99.90;;;;;;4901075;29;20076;-75
2023/01/02 12:37:59;;;;;;;35.03;5.22;;;;;;;;;;4901251;29;20408;-75
2023/01/02 12:41:05;;;;;;;17.13;3.30;;;9.20;99.90;;;;;;4901108;29;20048;-75
2023/01/02 12:43:34;;;;;;;29.83;5.20;;;;;;;;;;4901042;29;20044;-75
2023/01/02 12:46:00;;;;;;;33.92;5.35;;;;;;;;;;4900381;29;20044;-75
2023/01/02 12:48:29;;;;;;;18.73;3.50;;;;;;;;;;4900551;29;20084;-75
2023/01/02 12:51:14;;;;;;;27.88;3.67;;;;;;;;;;4882538;29;20052;-75
2023/01/02 12:53:58;;;;;;;29.75;3.92;;;;;;;;;;4881323;29;20060;-75
2023/01/02 12:56:34;;;;;;;25.83;3.85;;;;;;;;;;4898146;29;20481;-75
2023/01/02 12:59:18;;;;;;;31.92;5.65;;;;;;;;;;4896798;29;20466;-76
2023/01/02 13:01:51;;;;;;;23.25;3.90;;;;;;;;;;4882782;29;20135;-76
2023/01/02 13:04:20;;;;;;;34.53;5.45;;;;;;;;;;4898351;29;20763;-76
2023/01/02 13:07:02;;;;;;;31.08;3.95;;;;;;;;;;4900280;29;20116;-76
2023/01/02 13:09:49;;;;;;;16.65;4.07;;;;;;;;;;4883285;29;20466;-76
2023/01/02 13:12:15;;;;;;;39.80;5.45;;;;;;;;;;4900147;29;20052;-75
2023/01/02 13:14:46;;;;;;;38.95;6.05;;;;;;;;;;4900057;29;20048;-76
2023/01/02 13:17:15;;;;;;;37.08;5.55;;;;;;;;;;4881081;29;20440;-76
2023/01/02 13:20:22;;;;;;;26.52;4.28;;;9.20;99.90;;;;;;4900213;29;20437;-76
2023/01/02 13:22:48;;;;;;;35.95;5.05;;;;;;;;;;4868663;29;20056;-76
2023/01/02 13:25:16;;;;;;;32.72;5.88;;;;;;;;;;4900520;29;20047;-75
2023/01/02 13:27:43;;;;;;;38.70;5.20;;;;;;;;;;4900438;29;20047;-74
2023/01/02 13:30:30;;;;;;;38.90;6.35;;;9.20;99.90;;;;;;4885100;29;20048;-76
2023/01/02 13:32:57;;;;;;;36.50;5.90;;;;;;;;;;4884623;29;20059;-76
2023/01/02 13:35:23;;;;;;;44.88;4.95;;;;;;;;;;4885001;29;20114;-76
2023/01/02 13:37:51;;;;;;;44.78;5.40;;;9.30;99.90;;;;;;4900144;29;20584;-76
2023/01/02 13:40:35;;;;;;;24.27;5.07;;;;;;;;;;4900462;29;20052;-76
2023/01/02 13:43:04;;;;;;;31.48;5.53;;;9.20;99.90;;;;;;4900418;29;20051;-76
2023/01/02 13:45:58;;;;;;;50.03;7.05;;;;;;;;;;4900304;29;20044;-76
2023/01/02 13:48:38;;;;;;;28.23;6.15;;;9.30;99.90;;;;;;4881466;29;20370;-76
2023/01/02 13:51:31;;;;;;;42.75;7.78;;;9.30;99.90;;;;;;4900213;29;20048;-76
2023/01/02 13:53:57;;;;;;;31.85;7.32;;;;;;;;;;4884508;29;20060;-76
2023/01/02 13:56:28;;;;;;;39.15;5.93;;;;;;;;;;4900523;29;20445;-76
2023/01/02 13:58:57;;;;;;;24.85;5.68;;;;;;;;;;4900230;29;20040;-76
2023/01/02 14:01:23;;;;;;;22.45;4.75;;;;;;;;;;4884563;29;20044;-76
2023/01/02 14:04:07;;;;;;;29.23;4.90;;;;;;;;;;4899991;29;20087;-76
2023/01/02 14:06:41;;;;;;;43.28;6.65;;;;;;;;;;4884475;29;20127;-76
2023/01/02 14:09:14;;;;;;;29.55;5.35;;;;;;;;;;4884362;29;20048;-76
2023/01/02 14:11:45;;;;;;;33.08;6.35;;;;;;;;;;4915862;29;20082;-76
2023/01/02 14:14:34;;;;;;;28.92;5.95;;;;;;;;;;4900024;29;20048;-76
2023/01/02 14:17:05;;;;;;;33.33;6.25;;;;;;;;;;4887808;29;20063;-76
2023/01/02 14:19:31;;;;;;;35.10;6.65;;;;;;;;;;4899804;29;20067;-76
2023/01/02 14:21:57;;;;;;;26.20;5.70;;;;;;;;;;4899826;29;20103;-76